Time;durP1;ratioP1;P1;durP2;ratioP2;P2;SDS_P1;SDS_P2;PMS_P1;PMS_P2;Temp;Humidity;BMP_temperature;BMP_pressure;BME280_temperature;BME280_humidity;BME280_pressure;Samples;Min_cycle;Max_cycle;Signal;HPM_P1;HPM_P2
2023/04/20 00:01:53;;;;;;;4.22;1.90;;;;;;;;;;5017241;28;20058;-63
2023/04/20 00:04:21;;;;;;;2.10;1.65;;;;;;;;;;5019491;28;20115;-54
2023/04/20 00:07:02;;;;;;;6.00;1.80;;;;;;;;;;5016901;28;20061;-49
2023/04/20 00:09:36;;;;;;;2.35;1.50;;;;;;;;;;5017955;28;20085;-50
2023/04/20 00:12:09;;;;;;;3.88;2.05;;;;;;;;;;5019086;28;20057;-50
2023/04/20 00:14:36;;;;;;;3.45;1.73;;;;;;;;;;5017009;28;20056;-50
2023/04/20 00:17:04;;;;;;;4.03;1.90;;;;;;;;;;5014590;28;20613;-50
2023/04/20 00:19:38;;;;;;;5.45;2.00;;;;;;;;;;5015383;28;20060;-48
2023/04/20 00:22:05;;;;;;;5.32;2.00;;;;;;;;;;5015770;28;20454;-59
2023/04/20 00:24:39;;;;;;;3.83;1.80;;;;;;;;;;5019233;28;20146;-61
2023/04/20 00:27:06;;;;;;;3.55;1.58;;;;;;;;;;5015887;28;20410;-62
2023/04/20 00:29:33;;;;;;;2.55;1.98;;;;;;;;;;5022130;28;20054;-62
2023/04/20 00:32:07;;;;;;;2.80;1.70;;;;;;;;;;5018259;28;20503;-62
2023/04/20 00:34:34;;;;;;;2.17;1.60;;;;;;;;;;5017769;28;20207;-62
2023/04/20 00:37:08;;;;;;;3.22;2.10;;;;;;;;;;5016694;28;20508;-61
2023/04/20 00:39:35;;;;;;;3.10;1.83;;;;;;;;;;5017836;28;20501;-64
2023/04/20 00:42:06;;;;;;;4.45;2.03;;;;;;;;;;5018468;28;20053;-63
2023/04/20 00:44:40;;;;;;;3.25;2.45;;;;;;;;;;5019332;28;20208;-64
2023/04/20 00:47:07;;;;;;;4.45;1.80;;;;;;;;;;5014185;28;20076;-64
2023/04/20 00:49:41;;;;;;;2.00;1.70;;;;;;;;;;5017074;28;20057;-53
2023/04/20 00:52:08;;;;;;;8.18;2.30;;;;;;;;;;5017023;28;20428;-54
2023/04/20 00:54:36;;;;;;;2.03;1.67;;;;;;;;;;5015272;28;20077;-52
2023/04/20 00:57:12;;;;;;;5.93;1.77;;;;;;;;;;5017711;28;20063;-55
2023/04/20 00:59:40;;;;;;;5.05;1.70;;;;;;;;;;5012749;28;20560;-51
2023/04/20 01:02:14;;;;;;;5.30;1.60;;;;;;;;;;5018761;28;20646;-51
2023/04/20 01:04:41;;;;;;;2.33;1.58;;;;;;;;;;5021760;28;20049;-52
2023/04/20 01:07:09;;;;;;;3.58;1.92;;;;;;;;;;5019878;28;20053;-59
2023/04/20 01:09:50;;;;;;;2.38;1.92;;;;;;;;;;5017875;28;20421;-60
2023/04/20 01:12:17;;;;;;;3.53;2.05;;;;;;;;;;5020896;28;20058;-60
2023/04/20 01:14:51;;;;;;;3.67;1.90;;;;;;;;;;5017330;28;20058;-59
2023/04/20 01:17:19;;;;;;;1.92;1.73;;;;;;;;;;5018194;28;20140;-53
2023/04/20 01:19:52;;;;;;;4.18;1.90;;;;;;;;;;5010573;28;20073;-47
2023/04/20 01:22:20;;;;;;;2.63;2.08;;;;;;;;;;5015103;28;20144;-44
2023/04/20 01:24:47;;;;;;;4.00;2.00;;;;;;;;;;5016239;28;20081;-44
2023/04/20 01:27:21;;;;;;;3.40;1.88;;;;;;;;;;5019965;28;20081;-48
2023/04/20 01:29:48;;;;;;;5.90;2.13;;;;;;;;;;5017055;28;20049;-49
2023/04/20 01:32:15;;;;;;;3.97;1.92;;;;;;;;;;5016613;28;20053;-46
2023/04/20 01:34:49;;;;;;;2.60;1.73;;;;;;;;;;5016779;28;20058;-48
2023/04/20 01:37:16;;;;;;;2.63;2.00;;;;;;;;;;5017533;28;20148;-46
2023/04/20 01:39:50;;;;;;;2.92;1.90;;;;;;;;;;5018442;28;20054;-51
2023/04/20 01:42:17;;;;;;;2.55;2.00;;;;;;;;;;5014985;28;20604;-50
2023/04/20 01:44:44;;;;;;;2.65;1.98;;;;;;;;;;5021422;28;20065;-57
2023/04/20 01:47:18;;;;;;;2.80;2.05;;;;;;;;;;5015284;28;20079;-54
2023/04/20 01:49:45;;;;;;;2.40;1.88;;;;;;;;;;5019593;28;20060;-60
2023/04/20 01:52:12;;;;;;;3.38;2.13;;;;;;;;;;5015711;28;20057;-60
2023/04/20 01:54:46;;;;;;;3.33;2.05;;;;;;;;;;5018275;28;20077;-60
2023/04/20 01:57:13;;;;;;;3.17;2.03;;;;;;;;;;5016866;28;20050;-59
2023/04/20 01:59:47;;;;;;;3.10;1.90;;;;;;;;;;5017660;28;20481;-59
2023/04/20 02:02:14;;;;;;;3.75;2.20;;;;;;;;;;5018683;28;20423;-60
2023/04/20 02:04:41;;;;;;;8.27;2.22;;;;;;;;;;5011483;28;20109;-60
2023/04/20 02:07:28;;;;;;;5.00;2.22;;;;;;;;;;5015046;28;20061;-59
2023/04/20 02:10:02;;;;;;;4.55;2.20;;;;;;;;;;5015877;28;20088;-59
2023/04/20 02:12:36;;;;;;;2.85;2.00;;;;;;;;;;5014008;28;20081;-60
2023/04/20 02:15:04;;;;;;;6.07;1.92;;;;;;;;;;5013377;28;20064;-52
2023/04/20 02:17:31;;;;;;;2.80;2.13;;;;;;;;;;5004248;28;20057;-59
2023/04/20 02:20:06;;;;;;;3.08;1.83;;;;;;;;;;5016357;28;20112;-59
2023/04/20 02:22:33;;;;;;;3.15;2.00;;;;;;;;;;5016162;28;20067;-60
2023/04/20 02:25:01;;;;;;;2.42;1.95;;;;;;;;;;5019564;28;20073;-59
2023/04/20 02:27:35;;;;;;;2.55;1.70;;;;;;;;;;5015916;28;20076;-59
2023/04/20 02:30:09;;;;;;;4.60;1.80;;;;;;;;;;5015488;28;20398;-60
2023/04/20 02:32:36;;;;;;;2.20;1.90;;;;;;;;;;5017469;28;20081;-57
2023/04/20 02:35:04;;;;;;;4.43;2.10;;;;;;;;;;5014345;28;20092;-55
2023/04/20 02:37:38;;;;;;;5.20;2.17;;;;;;;;;;5015267;28;20053;-56
2023/04/20 02:40:12;;;;;;;3.67;2.20;;;;;;;;;;5016834;28;20565;-55
2023/04/20 02:42:40;;;;;;;3.67;2.20;;;;;;;;;;5013816;28;20076;-47
2023/04/20 02:45:07;;;;;;;9.98;2.25;;;;;;;;;;5015144;28;20049;-60
2023/04/20 02:47:41;;;;;;;3.75;2.25;;;;;;;;;;5016600;28;20084;-56
2023/04/20 02:50:15;;;;;;;3.03;2.00;;;;;;;;;;5014887;28;20105;-58
2023/04/20 02:52:42;;;;;;;2.83;2.10;;;;;;;;;;5015559;28;20054;-58
2023/04/20 02:55:10;;;;;;;4.28;2.30;;;;;;;;;;5018774;28;20057;-59
2023/04/20 02:57:43;;;;;;;4.55;2.15;;;;;;;;;;5012980;28;20694;-60
2023/04/20 03:00:12;;;;;;;3.88;2.28;;;;;;;;;;5016075;28;20911;-59
2023/04/20 03:02:46;;;;;;;6.63;2.30;;;;;;;;;;5014783;28;20053;-59
2023/04/20 03:05:14;;;;;;;4.40;2.63;;;;;;;;;;5011631;28;20085;-60
2023/04/20 03:07:41;;;;;;;5.53;2.53;;;;;;;;;;5012097;28;20140;-60
2023/04/20 03:10:22;;;;;;;6.20;2.60;;;;;;;;;;5014310;28;20057;-58
2023/04/20 03:12:49;;;;;;;2.85;2.40;;;;;;;;;;5014614;28;20062;-57
2023/04/20 03:15:24;;;;;;;4.57;2.40;;;;;;;;;;5015953;28;20050;-56
2023/04/20 03:17:51;;;;;;;;;;;;;;;;;;5013537;28;20054;-54
2023/04/20 03:20:18;;;;;;;3.15;2.10;;;;;;;;;;5014340;28;19929;-60
2023/04/20 03:22:52;;;;;;;4.38;2.10;;;;;;;;;;5014501;28;20058;-52
2023/04/20 03:25:20;;;;;;;5.00;2.10;;;;;;;;;;5015206;28;20072;-55
2023/04/20 03:27:54;;;;;;;5.18;2.33;;;;;;;;;;5016120;28;22008;-56
2023/04/20 03:30:21;;;;;;;3.10;2.30;;;;;;;;;;5016061;28;20145;-49
2023/04/20 03:32:48;;;;;;;2.53;1.90;;;;;;;;;;5016882;28;20049;-44
2023/04/20 03:35:22;;;;;;;4.72;2.30;;;;;;;;;;5011193;28;20070;-52
2023/04/20 03:37:49;;;;;;;2.67;1.98;;;;;;;;;;5013097;28;20054;-47
2023/04/20 03:40:23;;;;;;;3.17;2.40;;;;;;;;;;5021063;28;20045;-51
2023/04/20 03:42:50;;;;;;;3.08;2.15;;;;;;;;;;5017891;28;20132;-46
2023/04/20 03:45:17;;;;;;;11.48;1.90;;;;;;;;;;5011772;28;20050;-45
2023/04/20 03:47:51;;;;;;;3.35;2.20;;;;;;;;;;5014586;28;20412;-46
2023/04/20 03:50:18;;;;;;;;;;;;;;;;;;5015857;28;20144;-49
2023/04/20 03:52:52;;;;;;;3.20;2.00;;;;;;;;;;5015737;28;19947;-45
2023/04/20 03:55:19;;;;;;;2.60;2.20;;;;;;;;;;5004401;28;20498;-50
2023/04/20 03:57:46;;;;;;;5.10;2.03;;;;;;;;;;5013305;28;20073;-59
2023/04/20 04:00:20;;;;;;;2.85;1.77;;;;;;;;;;5018218;28;20057;-52
2023/04/20 04:02:47;;;;;;;14.00;2.92;;;;;;;;;;5020204;28;20148;-48
2023/04/20 04:05:21;;;;;;;7.50;2.85;;;;;;;;;;5001045;28;20189;-49
2023/04/20 04:07:55;;;;;;;2.90;2.17;;;;;;;;;;5002315;28;20115;-52
2023/04/20 04:10:29;;;;;;;2.83;2.20;;;;;;;;;;5005901;28;20057;-47
2023/04/20 04:13:03;;;;;;;3.58;2.13;;;;;;;;;;5003521;28;20868;-49
2023/04/20 04:15:30;;;;;;;2.67;2.00;;;;;;;;;;5008640;28;20077;-52
2023/04/20 04:17:58;;;;;;;4.85;2.20;;;;;;;;;;5010649;28;20140;-59
2023/04/20 04:20:31;;;;;;;2.92;2.05;;;;;;;;;;5012601;28;20505;-59
2023/04/20 04:22:58;;;;;;;6.22;2.58;;;;;;;;;;5013291;28;20144;-59
2023/04/20 04:25:32;;;;;;;5.80;2.45;;;;;;;;;;5013798;28;20728;-59
2023/04/20 04:27:59;;;;;;;3.42;2.20;;;;;;;;;;5011751;28;20509;-59
2023/04/20 04:30:26;;;;;;;3.17;2.20;;;;;;;;;;5015062;28;20148;-59
2023/04/20 04:33:03;;;;;;;6.07;2.20;;;;;;;;;;5013276;28;20049;-59
2023/04/20 04:35:32;;;;;;;4.65;1.80;;;;;;;;;;5012233;28;20057;-57
2023/04/20 04:38:06;;;;;;;3.80;1.60;;;;;;;;;;5012616;28;20046;-58
2023/04/20 04:40:33;;;;;;;2.88;2.08;;;;;;;;;;5012333;28;20254;-55
2023/04/20 04:43:01;;;;;;;2.75;1.88;;;;;;;;;;5013876;28;20060;-58
2023/04/20 04:45:39;;;;;;;2.03;1.63;;;;;;;;;;5016077;28;21694;-56
2023/04/20 04:48:10;;;;;;;3.63;1.80;;;;;;;;;;5010634;28;20230;-59
2023/04/20 04:50:44;;;;;;;3.47;2.08;;;;;;;;;;5010591;28;20133;-57
2023/04/20 04:53:11;;;;;;;1.70;1.58;;;;;;;;;;5010094;28;20060;-59
2023/04/20 04:55:38;;;;;;;2.33;1.70;;;;;;;;;;5010851;28;20045;-45
2023/04/20 04:58:12;;;;;;;4.95;1.73;;;;;;;;;;5014361;28;20061;-49
2023/04/20 05:00:39;;;;;;;6.53;1.90;;;;;;;;;;5014591;28;20148;-44
2023/04/20 05:03:06;;;;;;;4.15;2.15;;;;;;;;;;5010378;28;20103;-49
2023/04/20 05:05:40;;;;;;;6.57;1.70;;;;;;;;;;5009055;28;20060;-52
2023/04/20 05:08:15;;;;;;;2.63;2.20;;;;;;;;;;5012206;28;20100;-48
2023/04/20 05:10:49;;;;;;;1.88;1.58;;;;;;;;;;5009490;28;20148;-61
2023/04/20 05:13:17;;;;;;;3.72;1.75;;;;;;;;;;5014492;28;20057;-61
2023/04/20 05:15:44;;;;;;;4.00;1.80;;;;;;;;;;5013661;28;20145;-62
2023/04/20 05:18:18;;;;;;;4.82;1.98;;;;;;;;;;5016385;28;20137;-61
2023/04/20 05:20:45;;;;;;;3.72;1.88;;;;;;;;;;5015289;28;20056;-57
2023/04/20 05:23:12;;;;;;;4.07;1.80;;;;;;;;;;5015273;28;20135;-61
2023/04/20 05:25:46;;;;;;;11.73;2.00;;;;;;;;;;5013228;28;20668;-57
2023/04/20 05:28:13;;;;;;;4.72;2.20;;;;;;;;;;5014384;28;20093;-57
2023/04/20 05:30:47;;;;;;;3.90;1.95;;;;;;;;;;5013772;28;20054;-57
2023/04/20 05:33:14;;;;;;;1.88;1.63;;;;;;;;;;5015079;28;20066;-57
2023/04/20 05:35:42;;;;;;;2.20;1.90;;;;;;;;;;5014359;28;20050;-57
2023/04/20 05:38:15;;;;;;;4.32;2.00;;;;;;;;;;5011102;28;20080;-53
2023/04/20 05:40:43;;;;;;;1.88;1.70;;;;;;;;;;5013756;28;20156;-63
2023/04/20 05:43:18;;;;;;;1.55;1.40;;;;;;;;;;5011613;28;20479;-63
2023/04/20 05:45:45;;;;;;;3.35;1.90;;;;;;;;;;5015894;28;20037;-63
2023/04/20 05:48:12;;;;;;;2.00;1.67;;;;;;;;;;5013606;28;20525;-63
2023/04/20 05:50:46;;;;;;;6.70;1.70;;;;;;;;;;5011661;28;20081;-53
2023/04/20 05:53:13;;;;;;;;;;;;;;;;;;5011648;28;20052;-49
2023/04/20 05:55:41;;;;;;;1.42;1.00;;;;;;;;;;5010680;28;20035;-48
2023/04/20 05:58:14;;;;;;;3.75;1.60;;;;;;;;;;5012501;28;20081;-47
2023/04/20 06:00:41;;;;;;;3.42;1.65;;;;;;;;;;5012289;28;20144;-50
2023/04/20 06:03:15;;;;;;;3.30;1.55;;;;;;;;;;5012649;28;20049;-48
2023/04/20 06:05:42;;;;;;;;;;;;;;;;;;5014850;28;20128;-47
2023/04/20 06:08:10;;;;;;;4.80;1.35;;;;;;;;;;5012853;28;19922;-57
2023/04/20 06:10:51;;;;;;;1.42;1.10;;;;;;;;;;5011974;28;20521;-58
2023/04/20 06:13:18;;;;;;;2.13;1.40;;;;;;;;;;5011714;28;20060;-57
2023/04/20 06:15:52;;;;;;;3.15;1.38;;;;;;;;;;5015879;28;20058;-57
2023/04/20 06:18:20;;;;;;;1.63;1.10;;;;;;;;;;5012456;28;20424;-54
2023/04/20 06:20:47;;;;;;;2.45;1.25;;;;;;;;;;5011237;28;20136;-50
2023/04/20 06:23:21;;;;;;;1.42;1.25;;;;;;;;;;5012731;28;20132;-50
2023/04/20 06:25:48;;;;;;;2.22;1.25;;;;;;;;;;5012653;28;20129;-48
2023/04/20 06:28:22;;;;;;;2.45;1.25;;;;;;;;;;5012181;28;20132;-48
2023/04/20 06:30:49;;;;;;;1.85;1.40;;;;;;;;;;5014632;28;20057;-53
2023/04/20 06:33:17;;;;;;;2.92;1.60;;;;;;;;;;5012537;28;20057;-50
2023/04/20 06:35:53;;;;;;;1.40;1.27;;;;;;;;;;5011264;28;20030;-49
2023/04/20 06:38:20;;;;;;;1.75;1.20;;;;;;;;;;5012469;28;20050;-51
2023/04/20 06:40:57;;;;;;;2.42;1.27;;;;;;;;;;5010883;28;20157;-51
2023/04/20 06:43:25;;;;;;;3.80;1.42;;;;;;;;;;5012161;28;20704;-50
2023/04/20 06:45:52;;;;;;;3.58;1.20;;;;;;;;;;5012185;28;20049;-60
2023/04/20 06:48:26;;;;;;;1.48;1.20;;;;;;;;;;5012085;28;20143;-60
2023/04/20 06:50:58;;;;;;;2.75;1.50;;;;;;;;;;5014009;28;20628;-61
2023/04/20 06:53:32;;;;;;;1.48;1.20;;;;;;;;;;5010605;28;20053;-60
2023/04/20 06:55:59;;;;;;;1.98;1.35;;;;;;;;;;5011548;28;20070;-60
2023/04/20 06:58:26;;;;;;;4.95;1.25;;;;;;;;;;5015809;28;20131;-61
2023/04/20 07:01:00;;;;;;;3.97;1.23;;;;;;;;;;5013709;28;20141;-60
2023/04/20 07:03:27;;;;;;;1.33;1.17;;;;;;;;;;5011965;28;20571;-61
2023/04/20 07:06:01;;;;;;;5.30;1.20;;;;;;;;;;5011454;28;20620;-58
2023/04/20 07:08:41;;;;;;;1.92;1.27;;;;;;;;;;5009687;28;20548;-59
2023/04/20 07:11:15;;;;;;;1.17;0.80;;;;;;;;;;5010063;28;20072;-58
2023/04/20 07:13:42;;;;;;;5.30;1.05;;;;;;;;;;5011971;28;20424;-55
2023/04/20 07:16:10;;;;;;;1.20;1.10;;;;;;;;;;5013695;28;20092;-53
2023/04/20 07:18:43;;;;;;;4.25;1.38;;;;;;;;;;5012652;28;20527;-59
2023/04/20 07:21:10;;;;;;;3.47;1.23;;;;;;;;;;5013739;28;20100;-58
2023/04/20 07:23:44;;;;;;;1.98;1.20;;;;;;;;;;5010273;28;20144;-57
2023/04/20 07:26:11;;;;;;;1.92;1.38;;;;;;;;;;5015368;28;22034;-57
2023/04/20 07:28:38;;;;;;;2.88;1.20;;;;;;;;;;5014167;28;20057;-54
2023/04/20 07:31:12;;;;;;;3.20;1.05;;;;;;;;;;5014067;28;20056;-57
2023/04/20 07:33:39;;;;;;;3.13;1.13;;;;;;;;;;5017451;28;20092;-59
2023/04/20 07:36:13;;;;;;;1.13;1.00;;;;;;;;;;5014533;28;20042;-60
2023/04/20 07:38:40;;;;;;;1.77;1.00;;;;;;;;;;5013519;28;20144;-59
2023/04/20 07:41:09;;;;;;;1.00;0.90;;;;;;;;;;5014018;28;20120;-60
2023/04/20 07:43:43;;;;;;;1.58;1.20;;;;;;;;;;5014629;28;20142;-60
2023/04/20 07:46:10;;;;;;;3.22;1.33;;;;;;;;;;5016625;28;20050;-60
2023/04/20 07:48:44;;;;;;;4.03;1.10;;;;;;;;;;5016610;28;20093;-60
2023/04/20 07:51:11;;;;;;;3.33;1.10;;;;;;;;;;5014069;28;20050;-59
2023/04/20 07:53:39;;;;;;;3.35;1.30;;;;;;;;;;4999014;28;20085;-60
2023/04/20 07:56:12;;;;;;;0.95;0.90;;;;;;;;;;5014085;28;20160;-60
2023/04/20 07:58:39;;;;;;;1.50;1.05;;;;;;;;;;5017744;28;20066;-60
2023/04/20 08:01:07;;;;;;;2.63;1.00;;;;;;;;;;5016406;28;20056;-51
2023/04/20 08:03:40;;;;;;;1.27;0.90;;;;;;;;;;5003683;28;20240;-49
2023/04/20 08:06:09;;;;;;;3.45;1.30;;;;;;;;;;5014990;28;20645;-48
2023/04/20 08:08:56;;;;;;;2.10;1.20;;;;;;;;;;5013809;28;20050;-49
2023/04/20 08:11:30;;;;;;;1.13;0.98;;;;;;;;;;5018539;28;20050;-57
2023/04/20 08:14:04;;;;;;;10.18;1.63;;;;;;;;;;5015881;28;20116;-60
2023/04/20 08:16:32;;;;;;;2.42;1.10;;;;;;;;;;5015460;28;20084;-60
2023/04/20 08:19:00;;;;;;;2.00;1.50;;;;;;;;;;5016193;28;20145;-60
2023/04/20 08:21:34;;;;;;;2.88;1.10;;;;;;;;;;5013689;28;20054;-59
2023/04/20 08:24:01;;;;;;;2.17;1.05;;;;;;;;;;5013310;28;20515;-60
2023/04/20 08:26:28;;;;;;;1.17;1.05;;;;;;;;;;4999160;28;20835;-60
2023/04/20 08:29:02;;;;;;;2.83;1.02;;;;;;;;;;5016792;28;20100;-60
2023/04/20 08:31:30;;;;;;;1.73;1.13;;;;;;;;;;5014675;28;20057;-59
2023/04/20 08:34:04;;;;;;;4.93;1.20;;;;;;;;;;5017539;28;20053;-58
2023/04/20 08:36:31;;;;;;;3.42;1.40;;;;;;;;;;5014988;28;20055;-58
2023/04/20 08:39:18;;;;;;;1.52;1.13;;;;;;;;;;5013582;28;20049;-59
2023/04/20 08:41:46;;;;;;;3.67;1.30;;;;;;;;;;5015663;28;20479;-56
2023/04/20 08:44:20;;;;;;;2.22;1.33;;;;;;;;;;5017946;28;20156;-57
2023/04/20 08:46:48;;;;;;;3.50;1.40;;;;;;;;;;5013874;28;20136;-53
2023/04/20 08:49:16;;;;;;;3.20;1.15;;;;;;;;;;5017343;28;20410;-51
2023/04/20 08:51:50;;;;;;;1.48;1.10;;;;;;;;;;5012693;28;20060;-54
2023/04/20 08:54:24;;;;;;;1.45;1.23;;;;;;;;;;5012732;28;20054;-54
2023/04/20 08:56:58;;;;;;;3.70;1.40;;;;;;;;;;5014542;28;20045;-53
2023/04/20 08:59:32;;;;;;;2.58;1.40;;;;;;;;;;5014700;28;20064;-61
2023/04/20 09:02:13;;;;;;;1.88;1.10;;;;;;;;;;5016007;28;20075;-61
2023/04/20 09:04:41;;;;;;;1.85;1.25;;;;;;;;;;5016689;28;20394;-61
2023/04/20 09:07:19;;;;;;;3.78;1.40;;;;;;;;;;5015669;28;20099;-62
2023/04/20 09:10:06;;;;;;;3.97;1.20;;;;;;;;;;5002796;28;20509;-48
2023/04/20 09:12:41;;;;;;;1.25;1.13;;;;;;;;;;4995482;28;20129;-58
2023/04/20 09:15:09;;;;;;;3.00;1.55;;;;;;;;;;4991131;28;20504;-54
2023/04/20 09:17:39;;;;;;;5.30;1.33;;;;;;;;;;4998352;28;20050;-57
2023/04/20 09:20:13;;;;;;;4.00;1.40;;;;;;;;;;4994515;28;20086;-57
2023/04/20 09:22:41;;;;;;;2.30;1.30;;;;;;;;;;4992938;28;20154;-58
2023/04/20 09:25:17;;;;;;;3.15;1.65;;;;;;;;;;4994908;28;20050;-57
2023/04/20 09:27:55;;;;;;;4.65;1.42;;;;;;;;;;4994038;28;20054;-58
2023/04/20 09:30:41;;;;;;;4.53;1.15;;;;;;;;;;4994647;28;20136;-58
2023/04/20 09:33:13;;;;;;;3.80;1.40;;;;;;;;;;4993361;28;20053;-59
2023/04/20 09:35:47;;;;;;;6.07;1.40;;;;;;;;;;4992173;28;20058;-59
2023/04/20 09:38:26;;;;;;;3.00;1.50;;;;;;;;;;4993644;28;20053;-61
2023/04/20 09:40:53;;;;;;;1.80;1.13;;;;;;;;;;4995607;28;20050;-54
2023/04/20 09:43:29;;;;;;;3.38;1.30;;;;;;;;;;4994374;28;20479;-54
2023/04/20 09:45:57;;;;;;;2.92;1.20;;;;;;;;;;4993721;28;20056;-56
2023/04/20 09:48:24;;;;;;;3.40;1.50;;;;;;;;;;4991077;28;20096;-55
2023/04/20 09:51:00;;;;;;;2.05;1.00;;;;;;;;;;4995324;28;20621;-52
2023/04/20 09:53:28;;;;;;;2.38;1.50;;;;;;;;;;4992405;28;20561;-52
2023/04/20 09:56:01;;;;;;;1.30;1.20;;;;;;;;;;4991103;28;22328;-52
2023/04/20 09:58:32;;;;;;;4.35;1.83;;;;;;;;;;4996057;28;20066;-55
2023/04/20 10:00:59;;;;;;;4.22;1.42;;;;;;;;;;4996443;28;20053;-56
2023/04/20 10:03:33;;;;;;;4.22;1.23;;;;;;;;;;4992967;28;20054;-50
2023/04/20 10:06:01;;;;;;;8.20;1.50;;;;;;;;;;4991116;28;20050;-60
2023/04/20 10:08:28;;;;;;;;;;;;;;;;;;4982736;28;20081;-58
2023/04/20 10:11:09;;;;;;;3.22;1.60;;;;;;;;;;5012727;28;19936;-59
2023/04/20 10:13:36;;;;;;;3.70;1.35;;;;;;;;;;5013992;28;20053;-59
2023/04/20 10:16:17;;;;;;;2.22;1.60;;;;;;;;;;5016462;28;20049;-59
2023/04/20 10:18:55;;;;;;;2.13;1.05;;;;;;;;;;5012192;28;20493;-59
2023/04/20 10:21:31;;;;;;;6.22;1.73;;;;;;;;;;5012014;28;20057;-60
2023/04/20 10:24:02;;;;;;;3.78;1.27;;;;;;;;;;5012120;28;20145;-59
2023/04/20 10:26:40;;;;;;;5.60;1.50;;;;;;;;;;5012025;28;20046;-59
2023/04/20 10:29:07;;;;;;;4.50;1.20;;;;;;;;;;5012844;28;20061;-59
2023/04/20 10:31:36;;;;;;;3.53;1.20;;;;;;;;;;5011272;28;20089;-59
2023/04/20 10:34:09;;;;;;;2.40;1.38;;;;;;;;;;5012834;28;20153;-58
2023/04/20 10:36:37;;;;;;;4.47;1.33;;;;;;;;;;5012498;28;20528;-61
2023/04/20 10:39:18;;;;;;;3.80;1.40;;;;;;;;;;5012773;28;20489;-61
2023/04/20 10:41:53;;;;;;;6.25;1.30;;;;;;;;;;5013606;28;20057;-62
2023/04/20 10:44:27;;;;;;;2.83;1.30;;;;;;;;;;5011445;28;20489;-62
2023/04/20 10:46:55;;;;;;;;;;;;;;;;;;5014520;28;20075;-61
2023/04/20 10:49:27;;;;;;;2.80;1.20;;;;;;;;;;5001328;28;19960;-61
2023/04/20 10:52:01;;;;;;;8.13;1.40;;;;;;;;;;5011475;28;20184;-59
2023/04/20 10:54:39;;;;;;;2.38;1.10;;;;;;;;;;4998092;28;20104;-58
2023/04/20 10:57:15;;;;;;;2.58;1.80;;;;;;;;;;5011056;28;20592;-59
2023/04/20 10:59:43;;;;;;;4.00;1.17;;;;;;;;;;5012473;28;20105;-59
2023/04/20 11:02:13;;;;;;;4.38;1.20;;;;;;;;;;5008594;28;20058;-56
2023/04/20 11:04:46;;;;;;;1.70;1.30;;;;;;;;;;4998977;28;20050;-59
2023/04/20 11:07:14;;;;;;;2.15;1.33;;;;;;;;;;5013641;28;20056;-56
2023/04/20 11:09:59;;;;;;;2.28;1.30;;;;;;;;;;5019482;28;20050;-54
2023/04/20 11:12:38;;;;;;;4.53;1.13;;;;;;;;;;5012653;28;20054;-56
2023/04/20 11:15:12;;;;;;;6.32;1.48;;;;;;;;;;5010810;28;20054;-53
2023/04/20 11:17:39;;;;;;;;;;;;;;;;;;5014275;28;20073;-52
2023/04/20 11:20:15;;;;;;;3.30;1.23;;;;;;;;;;5016640;28;21667;-62
2023/04/20 11:22:43;;;;;;;6.43;1.30;;;;;;;;;;5016809;28;20050;-61
2023/04/20 11:25:10;;;;;;;;;;;;;;;;;;5016512;28;20054;-62
2023/04/20 11:27:44;;;;;;;7.40;1.77;;;;;;;;;;5010005;28;19925;-62
2023/04/20 11:30:11;;;;;;;3.85;1.17;;;;;;;;;;5014205;28;20050;-61
2023/04/20 11:32:39;;;;;;;3.38;1.38;;;;;;;;;;5011852;28;20054;-58
2023/04/20 11:35:13;;;;;;;4.80;1.33;;;;;;;;;;5014040;28;20076;-59
2023/04/20 11:37:52;;;;;;;1.90;1.20;;;;;;;;;;5018297;28;20132;-59
2023/04/20 11:40:20;;;;;;;3.67;1.50;;;;;;;;;;5015086;28;20084;-59
2023/04/20 11:42:47;;;;;;;;;;;;;;;;;;5016348;28;20070;-60
2023/04/20 11:45:20;;;;;;;4.13;1.30;;;;;;;;;;5016728;28;20020;-59
2023/04/20 11:47:48;;;;;;;7.70;1.35;;;;;;;;;;5016550;28;20120;-60
2023/04/20 15:41:17;;;;;;;5.63;1.80;;;;;;;;;;5023240;28;20068;-58
2023/04/20 15:43:58;;;;;;;4.82;1.40;;;;;;;;;;5005708;28;20124;-57
2023/04/20 15:46:25;;;;;;;4.55;1.40;;;;;;;;;;5009508;28;20059;-59
2023/04/20 15:48:59;;;;;;;3.33;1.38;;;;;;;;;;5002037;28;20148;-59
2023/04/20 15:51:27;;;;;;;6.88;1.80;;;;;;;;;;5009175;28;20060;-61
2023/04/20 15:53:54;;;;;;;1.73;1.52;;;;;;;;;;5004301;28;20568;-60
2023/04/20 15:56:27;;;;;;;2.58;1.35;;;;;;;;;;5006147;28;20144;-61
2023/04/20 15:58:54;;;;;;;6.47;1.98;;;;;;;;;;5010774;28;20592;-61
2023/04/20 16:01:28;;;;;;;4.97;1.67;;;;;;;;;;5015658;28;20893;-61
2023/04/20 16:03:55;;;;;;;8.20;1.67;;;;;;;;;;5015914;28;20045;-60
2023/04/20 16:06:23;;;;;;;5.32;1.63;;;;;;;;;;5015085;28;20057;-55
2023/04/20 16:08:56;;;;;;;3.10;1.42;;;;;;;;;;5010934;28;20049;-58
2023/04/20 16:11:23;;;;;;;1.52;1.08;;;;;;;;;;5016057;28;20058;-58
2023/04/20 16:13:57;;;;;;;4.07;1.40;;;;;;;;;;5015649;28;20060;-57
2023/04/20 16:16:24;;;;;;;1.77;1.40;;;;;;;;;;5016830;28;20077;-58
2023/04/20 16:18:53;;;;;;;2.60;1.60;;;;;;;;;;5017728;28;20499;-57
2023/04/20 16:21:26;;;;;;;3.58;1.52;;;;;;;;;;5014423;28;20050;-60
2023/04/20 16:23:55;;;;;;;1.58;1.40;;;;;;;;;;5014154;28;20096;-49
2023/04/20 16:26:29;;;;;;;4.68;1.38;;;;;;;;;;5016774;28;20089;-58
2023/04/20 16:28:56;;;;;;;5.78;1.38;;;;;;;;;;5009748;28;20049;-58
2023/04/20 16:31:24;;;;;;;4.88;1.40;;;;;;;;;;5012235;28;20053;-57
2023/04/20 16:33:59;;;;;;;2.78;1.40;;;;;;;;;;5014974;28;20080;-59
2023/04/20 16:36:26;;;;;;;2.53;1.40;;;;;;;;;;5010665;28;20144;-58
2023/04/20 16:38:53;;;;;;;4.90;1.60;;;;;;;;;;5008945;28;20067;-58
2023/04/20 16:41:34;;;;;;;4.00;1.52;;;;;;;;;;5010746;28;20057;-57
2023/04/20 16:44:12;;;;;;;3.65;1.33;;;;;;;;;;5028971;28;20049;-60
2023/04/20 16:46:47;;;;;;;5.55;1.42;;;;;;;;;;5025702;28;20049;-60
2023/04/20 16:49:15;;;;;;;5.75;1.42;;;;;;;;;;5047432;28;20060;-60
2023/04/20 16:51:42;;;;;;;11.55;1.38;;;;;;;;;;5050998;28;20491;-60
2023/04/20 16:54:15;;;;;;;3.53;1.52;;;;;;;;;;5039595;28;20070;-60
2023/04/20 16:56:43;;;;;;;3.08;1.33;;;;;;;;;;5044561;28;20063;-60
2023/04/20 16:59:16;;;;;;;7.10;1.70;;;;;;;;;;5051975;28;20049;-60
2023/04/20 17:01:44;;;;;;;4.43;1.52;;;;;;;;;;5048671;28;20058;-52
2023/04/20 17:04:11;;;;;;;2.45;1.33;;;;;;;;;;5050933;28;20053;-50
2023/04/20 17:06:45;;;;;;;3.35;1.40;;;;;;;;;;5042566;28;20519;-51
2023/04/20 17:09:13;;;;;;;2.10;1.17;;;;;;;;;;5050725;28;20056;-50
2023/04/20 17:11:47;;;;;;;4.65;1.30;;;;;;;;;;5053961;28;20080;-48
2023/04/20 17:14:14;;;;;;;;;;;;;;;;;;5051539;28;20060;-50
2023/04/20 17:16:42;;;;;;;2.45;1.38;;;;;;;;;;5047477;28;20387;-52
2023/04/20 17:19:16;;;;;;;4.10;1.65;;;;;;;;;;5051783;28;20056;-61
2023/04/20 17:21:44;;;;;;;5.38;1.52;;;;;;;;;;5053501;28;20055;-62
2023/04/20 17:24:18;;;;;;;2.88;1.52;;;;;;;;;;5051411;28;20061;-63
2023/04/20 17:26:46;;;;;;;1.90;1.35;;;;;;;;;;5052456;28;20107;-62
2023/04/20 17:29:13;;;;;;;4.82;1.50;;;;;;;;;;5048865;28;20118;-63
2023/04/20 17:31:47;;;;;;;5.53;1.42;;;;;;;;;;5054898;28;20129;-62
2023/04/20 17:34:14;;;;;;;4.10;1.48;;;;;;;;;;5051214;28;20428;-62
2023/04/20 17:36:42;;;;;;;2.28;1.40;;;;;;;;;;5053119;28;20057;-54
2023/04/20 17:39:15;;;;;;;5.03;1.98;;;;;;;;;;5051654;28;20686;-51
2023/04/20 17:41:49;;;;;;;5.53;1.85;;;;;;;;;;5049945;28;20057;-56
2023/04/20 17:44:23;;;;;;;4.65;1.48;;;;;;;;;;5050221;28;20059;-57
2023/04/20 17:46:50;;;;;;;5.30;1.25;;;;;;;;;;5050043;28;20048;-57
2023/04/20 17:49:17;;;;;;;3.03;1.42;;;;;;;;;;5050051;28;20432;-57
2023/04/20 17:51:51;;;;;;;3.47;1.63;;;;;;;;;;5052856;28;20064;-56
2023/04/20 17:54:18;;;;;;;5.43;1.70;;;;;;;;;;5050696;28;20045;-56
2023/04/20 17:56:52;;;;;;;2.40;1.42;;;;;;;;;;5052656;28;20139;-63
2023/04/20 17:59:20;;;;;;;2.22;1.17;;;;;;;;;;5050977;28;20052;-54
2023/04/20 18:01:48;;;;;;;4.18;1.52;;;;;;;;;;5052571;28;20056;-58
2023/04/20 18:04:21;;;;;;;5.75;1.60;;;;;;;;;;5048310;28;20106;-56
2023/04/20 18:06:50;;;;;;;2.58;1.40;;;;;;;;;;5052300;28;20048;-57
2023/04/20 18:09:23;;;;;;;3.05;1.52;;;;;;;;;;5050791;28;20048;-55
2023/04/20 18:11:50;;;;;;;1.58;1.33;;;;;;;;;;5052742;28;20060;-54
2023/04/20 18:14:18;;;;;;;5.25;1.75;;;;;;;;;;5052003;28;20479;-49
2023/04/20 18:16:53;;;;;;;3.30;1.50;;;;;;;;;;5049028;28;20049;-60
2023/04/20 18:19:21;;;;;;;2.38;1.42;;;;;;;;;;5052301;28;20117;-60
2023/04/20 18:21:55;;;;;;;7.20;1.55;;;;;;;;;;5050745;28;20052;-60
2023/04/20 18:24:22;;;;;;;3.15;1.50;;;;;;;;;;5050600;28;20052;-60
2023/04/20 18:26:50;;;;;;;4.78;1.60;;;;;;;;;;5050274;28;20052;-60
2023/04/20 18:29:23;;;;;;;2.38;1.50;;;;;;;;;;5038259;28;20955;-61
2023/04/20 18:31:52;;;;;;;3.88;1.30;;;;;;;;;;5051762;28;20140;-64
2023/04/20 18:34:28;;;;;;;2.85;1.50;;;;;;;;;;5045682;28;20048;-61
2023/04/20 18:36:56;;;;;;;2.10;1.33;;;;;;;;;;5045205;28;20057;-50
2023/04/20 18:39:24;;;;;;;3.60;1.40;;;;;;;;;;5052380;28;20045;-52
2023/04/20 18:42:11;;;;;;;10.10;1.77;;;;;;;;;;5053545;28;20067;-48
2023/04/20 18:44:45;;;;;;;5.00;1.80;;;;;;;;;;5050967;28;20144;-53
2023/04/20 18:47:21;;;;;;;2.55;1.23;;;;;;;;;;5052510;28;20518;-49
2023/04/20 18:49:48;;;;;;;2.55;1.50;;;;;;;;;;5053207;28;20064;-52
2023/04/20 18:52:15;;;;;;;4.68;1.48;;;;;;;;;;5051644;28;20648;-61
2023/04/20 18:54:48;;;;;;;5.13;1.73;;;;;;;;;;5051324;28;20544;-49
2023/04/20 18:57:16;;;;;;;2.47;1.60;;;;;;;;;;5049463;28;20063;-53
2023/04/20 18:59:49;;;;;;;8.52;1.73;;;;;;;;;;5050488;28;20857;-51